Time;durP1;ratioP1;P1;durP2;ratioP2;P2;SDS_P1;SDS_P2;PMS_P1;PMS_P2;Temp;Humidity;BMP_temperature;BMP_pressure;BME280_temperature;BME280_humidity;BME280_pressure;Samples;Min_cycle;Max_cycle;Signal;HPM_P1;HPM_P2
2020/12/19 00:00:35;;;;;;;63.13;38.53;;;;;;;4.47;83.14;101552.77;1698367;82;25791;-79
2020/12/19 00:03:01;;;;;;;57.67;37.73;;;;;;;4.47;82.97;101554.06;1694110;82;25871;-78
2020/12/19 00:05:28;;;;;;;55.67;35.58;;;;;;;4.40;82.77;101556.22;1694866;82;26292;-79
2020/12/19 00:07:54;;;;;;;52.83;35.43;;;;;;;4.31;82.63;101551.16;1697589;82;25728;-79
2020/12/19 00:10:21;;;;;;;57.53;35.73;;;;;;;4.25;82.55;101550.22;1695612;84;25762;-78
2020/12/19 00:12:47;;;;;;;54.93;35.17;;;;;;;4.15;82.50;101546.55;1695995;82;25703;-79
2020/12/19 00:15:15;;;;;;;51.55;35.50;;;;;;;4.07;82.47;101543.14;1693038;84;25881;-78
2020/12/19 00:17:42;;;;;;;50.52;33.83;;;;;;;3.98;82.46;101542.38;1694253;82;25808;-78
2020/12/19 00:20:09;;;;;;;49.50;32.78;;;;;;;3.94;82.71;101540.92;1696404;82;25861;-78
2020/12/19 00:22:36;;;;;;;53.10;31.52;;;;;;;3.87;82.44;101540.91;1696765;82;25960;-78
2020/12/19 00:25:04;;;;;;;47.03;31.50;;;;;;;3.75;82.36;101534.73;1695005;84;26354;-78
2020/12/19 00:27:30;;;;;;;46.18;30.17;;;;;;;3.72;82.62;101535.74;1679953;82;25733;-78
2020/12/19 00:29:57;;;;;;;44.55;29.23;;;;;;;3.72;82.72;101539.63;1694507;83;25684;-78
2020/12/19 00:32:23;;;;;;;44.50;29.05;;;;;;;3.70;82.57;101536.28;1695005;82;25855;-79
2020/12/19 00:34:50;;;;;;;41.48;27.05;;;;;;;3.64;82.49;101532.78;1670175;82;25856;-78
2020/12/19 00:37:16;;;;;;;44.50;29.63;;;;;;;3.61;82.39;101531.67;1695792;82;25693;-79
2020/12/19 00:39:42;;;;;;;38.05;26.62;;;;;;;3.55;82.20;101534.63;1694508;82;26368;-79
2020/12/19 00:42:10;;;;;;;45.50;29.37;;;;;;;3.55;82.20;101534.63;1703446;82;25795;-79
2020/12/19 00:44:36;;;;;;;42.80;28.27;;;;;;;3.46;82.01;101538.56;1693245;84;25760;-79
2020/12/19 00:47:03;;;;;;;47.23;28.60;;;;;;;3.42;82.09;101534.98;1695516;82;26406;-78
2020/12/19 00:49:29;;;;;;;47.65;28.12;;;;;;;3.30;82.46;101533.48;1693484;84;25829;-78
2020/12/19 00:51:56;;;;;;;45.23;29.32;;;;;;;3.30;82.46;101533.48;1694671;82;25913;-78
2020/12/19 00:54:22;;;;;;;47.10;29.00;;;;;;;3.10;82.15;101503.61;1667385;84;25704;-78
2020/12/19 00:56:53;;;;;;;43.28;29.42;;;;;;;3.11;82.17;101522.08;1710230;82;25731;-78
2020/12/19 00:59:20;;;;;;;43.87;29.50;;;;;;;3.08;82.39;101528.72;1698655;84;26621;-78
2020/12/19 01:01:46;;;;;;;48.25;27.82;;;;;;;3.08;82.39;101528.72;1698325;84;26566;-78
2020/12/19 01:04:13;;;;;;;48.40;28.52;;;;;;;3.06;82.21;101529.72;1698611;84;25782;-78
2020/12/19 01:06:39;;;;;;;41.37;26.33;;;;;;;3.01;82.18;101516.23;1704053;83;26470;-78
2020/12/19 01:09:06;;;;;;;40.33;26.23;;;;;;;3.01;82.20;101520.11;1696401;82;25764;-78
2020/12/19 01:11:36;;;;;;;39.35;25.20;;;;;;;2.95;81.92;101517.88;1728130;82;25731;-78
2020/12/19 01:14:04;;;;;;;42.53;27.43;;;;;;;2.80;81.63;101516.98;1678870;84;25703;-78
2020/12/19 01:16:31;;;;;;;36.23;25.32;;;;;;;2.80;82.08;101517.80;1695850;84;25633;-77
2020/12/19 01:18:59;;;;;;;44.75;26.73;;;;;;;2.85;82.12;101523.55;1698281;84;25867;-78
2020/12/19 01:21:28;;;;;;;42.93;27.80;;;;;;;2.73;81.93;101498.88;1703995;82;25700;-78
2020/12/19 01:23:55;;;;;;;40.38;27.27;;;;;;;2.85;81.90;101513.69;1719731;82;26500;-78
2020/12/19 01:26:23;;;;;;;44.33;28.23;;;;;;;2.85;81.90;101513.69;1686189;84;26476;-77
2020/12/19 01:28:50;;;;;;;40.95;27.48;;;;;;;2.87;82.01;101518.31;1699999;82;25630;-77
2020/12/19 01:31:20;;;;;;;41.68;26.23;;;;;;;2.80;82.26;101514.40;1694466;82;25709;-78
2020/12/19 01:33:47;;;;;;;47.27;28.85;;;;;;;2.80;82.26;101514.40;1692625;82;25687;-77
2020/12/19 01:36:21;;;;;;;49.55;29.60;;;;;;;2.79;81.87;101516.16;1691421;83;26356;-77
2020/12/19 01:38:48;;;;;;;44.03;27.62;;;;;;;2.74;81.91;101515.58;1689192;84;25744;-77
2020/12/19 01:41:15;;;;;;;43.05;27.67;;;;;;;2.69;81.75;101516.29;1694069;83;25778;-77
2020/12/19 01:43:55;;;;;;;43.95;27.67;;;;;;;2.59;81.53;101511.25;1733101;82;25742;-77
2020/12/19 01:46:39;;;;;;;43.37;26.83;;;;;;;2.59;81.53;101511.25;1725658;81;25372;-77
2020/12/19 01:49:05;;;;;;;45.63;28.20;;;;;;;2.49;81.79;101513.53;1716004;83;25882;-76
2020/12/19 01:51:33;;;;;;;40.08;26.48;;;;;;;2.49;81.79;101513.53;1695569;82;25747;-77
2020/12/19 01:53:59;;;;;;;43.87;28.65;;;;;;;2.49;81.72;101501.92;1693300;83;25732;-76
2020/12/19 01:56:49;;;;;;;44.63;28.15;;;;;;;2.49;81.74;101503.20;1709661;83;26627;-77
2020/12/19 01:59:16;;;;;;;42.90;27.45;;;;;;;2.42;81.74;101491.55;1691039;83;25892;-77
2020/12/19 02:01:48;;;;;;;41.13;28.35;;;;;;;2.37;81.59;101481.50;1693722;83;26159;-77
2020/12/19 02:04:16;;;;;;;45.03;29.05;;;;;;;2.41;81.46;101501.50;1691676;83;25853;-77
2020/12/19 02:06:47;;;;;;;46.60;28.67;;;;;;;2.33;81.41;101499.34;1690877;83;25801;-77
2020/12/19 02:09:15;;;;;;;41.13;26.80;;;;;;;2.29;81.70;101503.45;1691110;83;26583;-77
2020/12/19 02:11:43;;;;;;;47.05;27.15;;;;;;;2.30;81.82;101494.35;1692013;84;26295;-77
2020/12/19 02:14:11;;;;;;;47.00;28.95;;;;;;;2.23;81.50;101494.30;1691480;84;25727;-77
2020/12/19 02:16:38;;;;;;;52.08;30.92;;;;;;;2.13;81.41;101498.31;1690931;83;25484;-77
2020/12/19 02:19:26;;;;;;;54.30;30.95;;;;;;;2.10;81.87;101495.88;1690453;84;25636;-77
2020/12/19 02:21:53;;;;;;;60.75;34.20;;;;;;;2.14;81.97;101500.79;1693000;83;25829;-77
2020/12/19 02:24:20;;;;;;;56.08;32.88;;;;;;;2.18;81.86;101503.59;1695514;84;25841;-77
2020/12/19 02:26:48;;;;;;;58.20;33.58;;;;;;;2.18;81.75;101508.75;1695391;83;25806;-77
2020/12/19 02:29:15;;;;;;;61.83;33.60;;;;;;;2.17;81.87;101501.91;1695299;84;25722;-77
2020/12/19 02:31:43;;;;;;;55.10;33.95;;;;;;;2.12;81.58;101496.62;1693869;83;26413;-77
2020/12/19 02:34:09;;;;;;;73.47;35.60;;;;;;;2.08;81.79;101502.88;1690441;84;25696;-77
2020/12/19 02:36:37;;;;;;;55.60;32.23;;;;;;;2.00;81.62;101504.11;1692871;84;25709;-77
2020/12/19 02:39:05;;;;;;;59.98;30.45;;;;;;;1.93;81.84;101505.80;1693069;84;26262;-77
2020/12/19 02:41:37;;;;;;;44.83;28.55;;;;;;;1.87;81.81;101507.41;1672207;84;25613;-77
2020/12/19 02:44:04;;;;;;;50.88;30.82;;;;;;;1.81;81.90;101504.70;1686636;84;26410;-77
2020/12/19 02:46:30;;;;;;;44.65;29.37;;;;;;;1.78;82.13;101503.11;1704157;83;25800;-77
2020/12/19 02:48:57;;;;;;;48.80;28.30;;;;;;;1.83;82.41;101502.03;1694200;82;25783;-77
2020/12/19 02:51:23;;;;;;;45.85;28.75;;;;;;;1.89;82.49;101501.27;1696865;83;26578;-77
2020/12/19 02:53:49;;;;;;;51.15;30.95;;;;;;;1.96;82.52;101504.34;1698202;84;26331;-77
2020/12/19 02:56:16;;;;;;;49.15;29.75;;;;;;;1.98;82.38;101509.80;1705224;83;26271;-77
2020/12/19 02:58:42;;;;;;;47.93;29.07;;;;;;;1.96;82.34;101503.91;1698020;83;25858;-77
2020/12/19 03:01:31;;;;;;;47.48;28.60;;;;;;;2.00;82.53;101498.13;1696356;82;25726;-77
2020/12/19 03:03:59;;;;;;;48.80;30.55;;;;;;;2.06;82.67;101501.66;1694144;82;25770;-77
2020/12/19 03:06:25;;;;;;;43.13;28.47;;;;;;;2.07;82.61;101494.28;1696049;82;25740;-77
2020/12/19 03:08:52;;;;;;;41.68;27.75;;;;;;;2.02;82.28;101496.73;1695197;84;25885;-77
2020/12/19 03:11:18;;;;;;;44.18;27.90;;;;;;;1.96;82.31;101499.19;1698119;84;25707;-77
2020/12/19 03:13:45;;;;;;;45.67;27.80;;;;;;;1.94;82.34;101492.84;1696947;83;26449;-77
2020/12/19 03:16:11;;;;;;;43.78;28.80;;;;;;;1.89;82.19;101488.84;1698060;83;26757;-77
2020/12/19 03:18:37;;;;;;;41.45;28.05;;;;;;;1.90;82.40;101491.31;1698048;84;26303;-77
2020/12/19 03:21:04;;;;;;;46.53;29.02;;;;;;;1.96;82.43;101494.03;1700694;83;25670;-77
2020/12/19 03:23:30;;;;;;;44.67;29.23;;;;;;;1.98;82.43;101488.34;1694807;83;25624;-77
2020/12/19 03:25:56;;;;;;;48.00;28.83;;;;;;;1.96;82.18;101497.89;1696298;82;25824;-76
2020/12/19 03:28:23;;;;;;;50.83;32.05;;;;;;;1.89;82.00;101489.66;1692753;84;26639;-77
2020/12/19 03:30:49;;;;;;;49.03;29.90;;;;;;;1.78;81.92;101483.78;1704062;83;25769;-77
2020/12/19 03:33:15;;;;;;;47.62;28.87;;;;;;;1.74;81.99;101492.58;1724460;82;25747;-77
2020/12/19 03:35:41;;;;;;;44.42;28.30;;;;;;;1.68;82.08;101493.36;1681778;84;25963;-79
2020/12/19 03:38:08;;;;;;;48.87;29.80;;;;;;;1.65;82.27;101492.23;1679634;84;25770;-79
2020/12/19 03:40:35;;;;;;;48.75;29.57;;;;;;;1.67;82.43;101486.09;1679477;84;25822;-79
2020/12/19 03:43:02;;;;;;;46.13;28.23;;;;;;;1.68;82.42;101486.46;1679453;84;26431;-79
2020/12/19 03:45:28;;;;;;;44.85;29.02;;;;;;;1.66;82.41;101481.00;1657689;85;26315;-79
2020/12/19 03:47:54;;;;;;;48.63;30.37;;;;;;;1.65;82.48;101476.31;1679040;84;25678;-79
2020/12/19 03:50:21;;;;;;;52.13;32.45;;;;;;;1.69;82.60;101468.81;1673174;85;25872;-77
2020/12/19 03:52:47;;;;;;;49.98;30.62;;;;;;;1.70;82.67;101467.89;1676434;84;26390;-77
2020/12/19 03:55:14;;;;;;;51.92;31.68;;;;;;;1.76;82.83;101467.56;1676196;84;26476;-77
2020/12/19 03:57:40;;;;;;;55.23;33.00;;;;;;;1.77;82.70;101467.95;1672713;85;25725;-77
2020/12/19 04:00:08;;;;;;;57.58;34.55;;;;;;;1.78;82.81;101467.50;1675628;84;25599;-77
2020/12/19 04:02:36;;;;;;;50.58;31.40;;;;;;;1.80;82.83;101464.82;1673975;84;25811;-77
2020/12/19 04:05:07;;;;;;;51.60;31.30;;;;;;;1.78;82.73;101459.30;1675993;85;26412;-77
2020/12/19 04:07:33;;;;;;;59.35;33.38;;;;;;;1.70;82.51;101461.91;1680683;84;25922;-77
2020/12/19 04:09:59;;;;;;;47.17;30.08;;;;;;;1.67;82.65;101461.61;1679046;84;25911;-76
2020/12/19 04:12:26;;;;;;;47.03;29.52;;;;;;;1.67;82.73;101464.19;1679467;85;25849;-77
2020/12/19 04:14:52;;;;;;;49.25;30.17;;;;;;;1.67;82.67;101456.92;1671661;85;25801;-77
2020/12/19 04:17:18;;;;;;;51.25;31.68;;;;;;;1.65;82.56;101465.19;1678441;85;25689;-77
2020/12/19 04:19:45;;;;;;;55.83;33.05;;;;;;;1.57;82.45;101464.75;1687234;84;25731;-77
2020/12/19 04:22:12;;;;;;;52.38;31.87;;;;;;;1.53;82.55;101463.63;1689287;84;25892;-77
2020/12/19 04:24:38;;;;;;;48.58;31.70;;;;;;;1.50;82.64;101466.36;1676940;84;25796;-77
2020/12/19 04:27:04;;;;;;;49.25;30.75;;;;;;;1.49;82.80;101456.95;1674149;84;25817;-77
2020/12/19 04:29:31;;;;;;;53.35;30.23;;;;;;;1.48;82.76;101454.47;1673059;84;26425;-77
2020/12/19 04:31:59;;;;;;;50.43;29.48;;;;;;;1.48;82.84;101450.14;1671554;85;25637;-77
2020/12/19 04:34:26;;;;;;;42.65;28.87;;;;;;;1.46;82.80;101457.57;1673738;84;25734;-77
2020/12/19 04:36:54;;;;;;;42.75;29.45;;;;;;;1.44;82.77;101455.06;1696994;84;25735;-77
2020/12/19 04:39:21;;;;;;;44.30;28.52;;;;;;;1.41;82.70;101452.65;1697182;83;25717;-77
2020/12/19 04:41:47;;;;;;;47.98;30.90;;;;;;;1.37;82.77;101453.73;1696930;84;26367;-77
2020/12/19 04:44:15;;;;;;;45.08;31.70;;;;;;;1.37;82.79;101450.33;1694500;83;26246;-77
2020/12/19 04:46:43;;;;;;;50.38;31.93;;;;;;;1.32;82.82;101454.42;1692070;83;25815;-77
2020/12/19 04:49:11;;;;;;;44.75;29.95;;;;;;;1.27;82.91;101451.24;1703274;83;26375;-77
2020/12/19 04:51:38;;;;;;;46.58;28.95;;;;;;;1.24;82.98;101449.66;1709793;83;25693;-77
2020/12/19 04:54:13;;;;;;;45.08;29.52;;;;;;;1.18;82.99;101452.55;1699198;83;26329;-76
2020/12/19 04:56:40;;;;;;;44.70;29.15;;;;;;;1.12;83.00;101451.58;1696950;84;25708;-77
2020/12/19 04:59:07;;;;;;;45.52;28.95;;;;;;;1.11;83.09;101450.72;1695160;83;25753;-77
2020/12/19 05:01:33;;;;;;;46.98;30.02;;;;;;;1.11;83.22;101455.86;1694146;83;25764;-77
2020/12/19 05:03:59;;;;;;;44.58;28.65;;;;;;;1.13;83.26;101454.52;1692756;84;26530;-78
2020/12/19 05:06:29;;;;;;;48.60;29.52;;;;;;;1.14;83.21;101457.92;1690121;83;26336;-77
2020/12/19 05:08:57;;;;;;;47.85;31.12;;;;;;;1.11;83.20;101455.04;1694313;83;33212;-78
2020/12/19 05:11:26;;;;;;;47.78;30.62;;;;;;;1.12;83.39;101456.72;1692362;83;25762;-78
2020/12/19 05:13:53;;;;;;;50.12;29.85;;;;;;;1.13;83.52;101457.09;1692582;83;25795;-77
2020/12/19 05:16:19;;;;;;;46.73;30.15;;;;;;;1.14;83.59;101455.34;1691394;84;25689;-77
2020/12/19 05:18:46;;;;;;;45.83;30.35;;;;;;;1.14;83.65;101451.48;1696831;84;26334;-77
2020/12/19 05:21:14;;;;;;;42.65;28.10;;;;;;;1.16;83.80;101454.81;1703699;83;25812;-77
2020/12/19 05:23:43;;;;;;;45.03;28.25;;;;;;;1.14;83.77;101454.88;1697681;83;25805;-76
2020/12/19 05:26:12;;;;;;;49.45;29.80;;;;;;;1.15;83.68;101454.45;1697321;83;25800;-77
2020/12/19 05:28:42;;;;;;;44.73;29.70;;;;;;;1.15;83.86;101446.73;1696057;84;25693;-77
2020/12/19 05:31:11;;;;;;;48.25;29.77;;;;;;;1.16;83.91;101451.78;1694019;83;26166;-77
2020/12/19 05:33:43;;;;;;;49.35;30.62;;;;;;;1.18;83.95;101458.98;1695501;84;25863;-76
2020/12/19 05:36:21;;;;;;;57.98;30.92;;;;;;;1.18;83.98;101457.70;1673463;84;25726;-77
2020/12/19 05:38:48;;;;;;;48.75;29.10;;;;;;;1.20;83.99;101454.59;1699706;84;25867;-77
2020/12/19 05:41:14;;;;;;;55.58;30.27;;;;;;;1.20;84.01;101461.03;1676629;83;25568;-77
2020/12/19 05:43:51;;;;;;;47.85;30.95;;;;;;;1.20;84.14;101455.88;1707704;83;25682;-77
2020/12/19 05:46:28;;;;;;;48.63;29.15;;;;;;;1.22;84.21;101460.94;1698204;84;25773;-77
2020/12/19 05:48:57;;;;;;;47.05;30.27;;;;;;;1.20;84.09;101455.88;1688271;82;25950;-77
2020/12/19 05:51:29;;;;;;;50.75;31.30;;;;;;;1.18;84.14;101455.13;1694591;82;25676;-77
2020/12/19 05:54:03;;;;;;;49.38;30.20;;;;;;;1.18;84.19;101455.13;1694344;82;25857;-77
2020/12/19 05:56:38;;;;;;;47.65;27.37;;;;;;;1.18;84.17;101454.30;1692752;84;25805;-77
2020/12/19 05:59:09;;;;;;;42.25;25.92;;;;;;;1.17;84.19;101453.89;1693771;84;25743;-76
2020/12/19 06:01:40;;;;;;;44.33;26.42;;;;;;;1.19;84.32;101452.91;1695028;82;25747;-77
2020/12/19 06:04:07;;;;;;;;;;;;;;;1.20;84.33;101456.31;1697045;82;25875;-77
2020/12/19 06:06:39;;;;;;;49.10;26.40;;;;;;;1.22;84.37;101457.91;1695698;82;26607;-77
2020/12/19 06:09:08;;;;;;;44.48;26.75;;;;;;;1.17;84.31;101452.15;1696905;82;27200;-77
2020/12/19 06:11:58;;;;;;;44.90;25.65;;;;;;;1.10;84.31;101446.48;1697549;82;25537;-77
2020/12/19 06:14:32;;;;;;;41.28;26.17;;;;;;;1.10;84.58;101443.09;1602035;88;33270;-77
2020/12/19 06:17:07;;;;;;;40.73;24.23;;;;;;;1.11;84.60;101441.70;1604940;88;25973;-77
2020/12/19 06:19:36;;;;;;;39.70;25.10;;;;;;;1.14;84.63;101443.75;1614449;87;26039;-77
2020/12/19 06:22:02;;;;;;;39.33;24.12;;;;;;;1.16;84.61;101452.24;1614470;87;25892;-79
2020/12/19 06:24:47;;;;;;;40.23;24.72;;;;;;;1.14;84.51;101453.59;1610024;87;25967;-79
2020/12/19 06:27:28;;;;;;;44.33;27.48;;;;;;;1.11;84.45;101459.73;1593327;87;26087;-77
2020/12/19 06:29:55;;;;;;;50.20;30.05;;;;;;;1.09;84.48;101459.42;1609886;87;25817;-77
2020/12/19 06:32:27;;;;;;;44.00;28.65;;;;;;;1.05;84.38;101463.08;1610687;87;25926;-76
2020/12/19 06:35:09;;;;;;;51.18;30.68;;;;;;;1.05;84.57;101460.50;1618569;85;25855;-76
2020/12/19 06:37:40;;;;;;;43.23;26.70;;;;;;;1.04;84.63;101464.00;1615228;87;25899;-77
2020/12/19 06:40:10;;;;;;;;;;;;;;;1.01;84.61;101463.69;1598296;87;25805;-77
2020/12/19 06:42:37;;;;;;;43.08;27.05;;;;;;;1.01;84.64;101462.41;1624161;87;25747;-77
2020/12/19 06:45:29;;;;;;;40.30;24.85;;;;;;;1.02;84.73;101470.50;1626972;87;25853;-77
2020/12/19 06:47:58;;;;;;;39.63;24.23;;;;;;;1.02;84.73;101468.38;1625310;87;26363;-77
2020/12/19 06:50:26;;;;;;;40.95;24.57;;;;;;;1.06;84.83;101472.02;1673248;82;25804;-77
2020/12/19 06:52:59;;;;;;;40.70;23.27;;;;;;;1.07;84.73;101474.96;1703571;82;25350;-77
2020/12/19 06:55:28;;;;;;;42.62;26.25;;;;;;;1.11;84.76;101476.92;1724237;81;25840;-77
2020/12/19 06:57:57;;;;;;;46.60;27.80;;;;;;;1.11;84.71;101479.03;1714919;83;25731;-77
2020/12/19 07:00:31;;;;;;;43.75;28.40;;;;;;;1.14;84.68;101481.09;1711646;83;26447;-77
2020/12/19 07:03:00;;;;;;;45.15;26.48;;;;;;;1.10;84.58;101487.68;1711259;82;25766;-77
2020/12/19 07:05:35;;;;;;;40.47;26.47;;;;;;;1.08;84.60;101495.10;1709849;82;26455;-77
2020/12/19 07:08:22;;;;;;;43.30;27.75;;;;;;;1.07;84.62;101489.59;1712559;82;25670;-77
2020/12/19 07:10:50;;;;;;;47.45;26.10;;;;;;;1.04;84.63;101494.42;1707714;82;25893;-77
2020/12/19 07:13:17;;;;;;;38.67;26.23;;;;;;;1.05;84.67;101495.25;1714182;82;26840;-77
2020/12/19 07:15:49;;;;;;;47.80;27.05;;;;;;;1.06;84.68;101490.47;1715506;82;25955;-79
2020/12/19 07:18:33;;;;;;;45.03;25.70;;;;;;;1.08;84.69;101497.21;1726967;81;26226;-79
2020/12/19 07:21:04;;;;;;;43.42;26.90;;;;;;;1.09;84.66;101497.61;1725942;81;25631;-79
2020/12/19 07:23:32;;;;;;;;;;;;;;;1.10;84.66;101496.69;1729363;81;25733;-79
2020/12/19 07:25:58;;;;;;;42.88;25.95;;;;;;;1.11;84.68;101495.77;1725068;81;26321;-79
2020/12/19 07:28:25;;;;;;;41.75;26.75;;;;;;;1.11;84.67;101493.66;1728178;81;26328;-79
2020/12/19 07:30:51;;;;;;;50.00;28.85;;;;;;;1.09;84.71;101495.03;1727416;81;25761;-77
2020/12/19 07:33:18;;;;;;;48.65;26.73;;;;;;;1.09;84.81;101494.17;1724933;81;25427;-77
2020/12/19 07:35:45;;;;;;;44.53;27.52;;;;;;;1.11;84.92;101492.37;1696943;82;25701;-77
2020/12/19 07:38:11;;;;;;;48.13;29.20;;;;;;;1.17;84.98;101496.38;1670579;84;26636;-77
2020/12/19 07:40:38;;;;;;;47.48;29.82;;;;;;;1.16;84.86;101494.73;1668253;84;25750;-77
2020/12/19 07:43:08;;;;;;;49.93;28.15;;;;;;;1.15;84.87;101499.05;1670089;84;25716;-77
2020/12/19 07:45:36;;;;;;;49.38;28.60;;;;;;;1.20;85.06;101489.78;1667387;84;25815;-77
2020/12/19 07:48:04;;;;;;;47.13;27.55;;;;;;;1.22;85.03;101492.66;1668295;84;25702;-76
2020/12/19 07:50:32;;;;;;;50.48;31.10;;;;;;;1.26;85.06;101492.08;1667435;84;25822;-77
2020/12/19 07:53:05;;;;;;;44.18;29.27;;;;;;;1.29;85.18;101490.63;1668024;84;25722;-77
2020/12/19 07:55:33;;;;;;;54.90;31.20;;;;;;;1.34;85.09;101495.10;1666626;84;25893;-77
2020/12/19 07:58:01;;;;;;;51.18;30.55;;;;;;;1.30;85.02;101496.97;1672120;84;26321;-77
2020/12/19 08:00:30;;;;;;;47.50;29.02;;;;;;;1.27;85.00;101495.84;1667817;84;25824;-77
2020/12/19 08:02:56;;;;;;;48.73;29.75;;;;;;;1.30;85.10;101496.97;1667546;84;26487;-77
2020/12/19 08:05:23;;;;;;;47.20;28.32;;;;;;;1.26;84.97;101495.94;1666178;84;26410;-77
2020/12/19 08:07:55;;;;;;;47.55;29.80;;;;;;;1.28;85.13;101500.53;1665400;84;25883;-77
2020/12/19 08:10:22;;;;;;;48.15;29.02;;;;;;;1.28;85.23;101488.95;1669755;84;25783;-77
2020/12/19 08:12:49;;;;;;;51.42;29.02;;;;;;;1.31;85.33;101498.66;1665579;84;25720;-77
2020/12/19 08:15:23;;;;;;;50.15;30.32;;;;;;;1.37;85.41;101491.08;1664914;84;26537;-77
2020/12/19 08:18:00;;;;;;;47.80;28.60;;;;;;;1.39;85.46;101494.84;1668893;84;25791;-77
2020/12/19 08:20:36;;;;;;;47.78;29.25;;;;;;;1.43;85.45;101492.05;1678110;84;25538;-77
2020/12/19 08:23:07;;;;;;;51.60;32.63;;;;;;;1.46;85.55;101485.45;1667253;84;25714;-77
2020/12/19 08:25:35;;;;;;;111.35;70.50;;;;;;;1.53;85.63;101488.09;1666058;84;25848;-77
2020/12/19 08:28:02;;;;;;;110.08;63.78;;;;;;;1.56;85.65;101487.11;1663888;84;25735;-78
2020/12/19 08:30:33;;;;;;;101.30;57.03;;;;;;;1.56;85.51;101485.82;1660206;84;25762;-78
2020/12/19 08:33:07;;;;;;;155.78;89.90;;;;;;;1.46;85.42;101488.48;1667099;84;25892;-78
2020/12/19 08:35:43;;;;;;;73.35;46.75;;;;;;;1.41;85.65;101488.70;1682309;83;26438;-78
2020/12/19 08:38:24;;;;;;;61.63;40.70;;;;;;;1.38;85.76;101483.72;1671593;84;26315;-77
2020/12/19 08:40:53;;;;;;;53.60;32.93;;;;;;;1.40;85.87;101490.09;1693286;83;26450;-77
2020/12/19 08:43:20;;;;;;;53.55;34.13;;;;;;;1.36;85.85;101489.86;1695787;82;26700;-77
2020/12/19 08:45:48;;;;;;;51.98;29.37;;;;;;;1.35;86.12;101491.60;1691781;82;26443;-77
2020/12/19 08:48:22;;;;;;;61.55;36.03;;;;;;;1.34;86.02;101492.52;1691234;83;25771;-77
2020/12/19 08:50:50;;;;;;;51.75;30.90;;;;;;;1.34;86.08;101491.23;1687507;83;25850;-77
2020/12/19 08:53:25;;;;;;;56.90;33.35;;;;;;;1.42;86.32;101493.40;1697578;82;25771;-77
2020/12/19 08:55:53;;;;;;;56.15;32.73;;;;;;;1.42;86.27;101491.68;1700926;82;25765;-77
2020/12/19 08:58:28;;;;;;;63.05;34.67;;;;;;;1.42;86.25;101487.81;1693870;82;25904;-77
2020/12/19 09:00:58;;;;;;;53.38;33.50;;;;;;;1.50;86.51;101486.11;1693921;82;25758;-77
2020/12/19 09:03:32;;;;;;;60.10;34.95;;;;;;;1.57;86.52;101490.52;1698735;83;25572;-77
2020/12/19 09:06:07;;;;;;;54.35;32.25;;;;;;;1.60;86.55;101482.62;1697776;82;26334;-77
2020/12/19 09:08:41;;;;;;;60.43;31.77;;;;;;;1.60;86.47;101486.02;1697093;82;25775;-77
2020/12/19 09:11:23;;;;;;;55.55;33.30;;;;;;;1.62;86.51;101484.67;1695429;83;26561;-77
2020/12/19 09:13:49;;;;;;;55.08;34.13;;;;;;;1.68;86.58;101480.02;1696948;82;26396;-77
2020/12/19 09:16:17;;;;;;;56.92;34.63;;;;;;;1.69;86.45;101465.38;1702915;82;25794;-77
2020/12/19 09:18:43;;;;;;;59.10;33.78;;;;;;;1.65;86.28;101472.91;1702371;82;25735;-77
2020/12/19 09:21:11;;;;;;;61.85;35.78;;;;;;;1.59;86.30;101468.09;1708563;82;26343;-78
2020/12/19 09:23:38;;;;;;;57.43;32.75;;;;;;;1.58;86.45;101465.11;1701043;82;25729;-77
2020/12/19 09:26:06;;;;;;;60.45;32.70;;;;;;;1.56;86.50;101469.08;1695983;83;25885;-77
2020/12/19 09:28:33;;;;;;;54.75;32.00;;;;;;;1.52;86.48;101470.95;1695087;84;25732;-78
2020/12/19 09:31:00;;;;;;;51.90;30.23;;;;;;;1.50;86.59;101474.52;1691464;83;25878;-77
2020/12/19 09:33:26;;;;;;;50.08;28.92;;;;;;;1.48;86.64;101472.04;1694375;83;25812;-77
2020/12/19 09:35:53;;;;;;;51.23;31.07;;;;;;;1.52;86.66;101472.24;1693708;83;25772;-77
2020/12/19 09:38:20;;;;;;;60.98;34.33;;;;;;;1.49;86.58;101474.16;1703415;82;25755;-78
2020/12/19 09:40:46;;;;;;;54.75;32.38;;;;;;;1.52;86.82;101478.69;1703898;82;25764;-78
2020/12/19 09:43:13;;;;;;;54.05;32.63;;;;;;;1.60;86.95;101486.48;1704472;82;25874;-77
2020/12/19 09:45:39;;;;;;;53.75;31.07;;;;;;;1.58;86.79;101488.30;1681133;83;25868;-79
2020/12/19 09:48:06;;;;;;;51.55;32.40;;;;;;;1.59;86.75;101486.95;1705846;82;25898;-80
2020/12/19 09:50:33;;;;;;;52.53;33.70;;;;;;;1.62;86.85;101488.08;1701683;82;25512;-79
2020/12/19 09:52:59;;;;;;;52.20;32.35;;;;;;;1.68;86.80;101486.46;1702703;82;26473;-77
2020/12/19 09:55:27;;;;;;;56.50;33.10;;;;;;;1.69;86.69;101492.01;1704218;82;25872;-77
2020/12/19 09:57:55;;;;;;;56.53;35.55;;;;;;;1.71;86.77;101486.76;1703604;82;26666;-78
2020/12/19 10:00:23;;;;;;;55.40;33.90;;;;;;;1.74;86.76;101477.58;1704085;82;25736;-77
2020/12/19 10:02:53;;;;;;;58.98;34.90;;;;;;;1.77;86.92;101477.41;1707773;82;25781;-80
2020/12/19 10:05:17;;;;;;;58.38;35.40;;;;;;;1.84;86.98;101478.77;1702881;83;25829;-80
2020/12/19 10:07:43;;;;;;;55.63;33.23;;;;;;;1.85;86.83;101477.84;1703262;82;26454;-80
2020/12/19 10:10:10;;;;;;;58.35;33.70;;;;;;;1.86;86.68;101476.12;1699245;82;26798;-80
2020/12/19 10:12:36;;;;;;;55.83;33.78;;;;;;;1.84;86.75;101477.94;1702283;83;26410;-79
2020/12/19 10:15:05;;;;;;;51.25;31.65;;;;;;;1.84;86.71;101473.61;1699199;82;25884;-80
2020/12/19 10:17:31;;;;;;;55.03;32.55;;;;;;;1.84;86.68;101469.74;1698946;82;25875;-78
2020/12/19 10:19:57;;;;;;;51.68;32.73;;;;;;;1.81;86.62;101469.91;1706117;82;25884;-78
2020/12/19 10:22:24;;;;;;;47.23;29.45;;;;;;;1.81;86.54;101467.79;1701512;82;25302;-78
2020/12/19 10:24:50;;;;;;;50.67;30.00;;;;;;;1.82;86.73;101472.02;1701274;82;25817;-77
2020/12/19 10:27:16;;;;;;;51.48;31.85;;;;;;;1.84;86.70;101471.03;1702587;82;26347;-77
2020/12/19 10:29:43;;;;;;;47.78;28.07;;;;;;;1.86;86.67;101468.38;1714858;82;26425;-78
2020/12/19 10:32:12;;;;;;;45.52;26.15;;;;;;;1.84;86.47;101470.20;1710659;82;25781;-78
2020/12/19 10:34:39;;;;;;;45.25;27.10;;;;;;;1.80;86.34;101468.69;1710926;82;25881;-78
2020/12/19 10:37:06;;;;;;;47.88;27.73;;;;;;;1.63;86.27;101450.25;1708943;82;25330;-77
2020/12/19 10:39:32;;;;;;;44.38;25.20;;;;;;;1.63;86.27;101450.25;1698401;82;25886;-78
2020/12/19 10:41:59;;;;;;;47.95;28.02;;;;;;;1.77;86.44;101466.67;1666815;84;25804;-78
2020/12/19 10:44:25;;;;;;;52.75;28.45;;;;;;;1.80;86.50;101464.39;1696192;82;25715;-78
2020/12/19 10:46:52;;;;;;;50.45;28.70;;;;;;;1.81;86.54;101462.64;1697631;82;26420;-77
2020/12/19 10:49:18;;;;;;;50.30;30.65;;;;;;;1.82;86.54;101467.70;1692767;82;26403;-78
2020/12/19 10:51:44;;;;;;;46.13;26.93;;;;;;;1.83;86.61;101469.38;1696471;82;25677;-78
2020/12/19 10:54:10;;;;;;;48.95;28.35;;;;;;;1.83;86.55;101469.81;1695398;82;25883;-78
2020/12/19 10:56:37;;;;;;;46.33;29.52;;;;;;;1.82;86.67;101470.27;1694750;82;25802;-78
2020/12/19 10:59:03;;;;;;;56.18;27.73;;;;;;;1.86;86.88;101465.34;1698136;82;25842;-77
2020/12/19 11:01:29;;;;;;;40.65;24.60;;;;;;;1.85;86.75;101464.13;1698723;82;25708;-78
2020/12/19 11:03:55;;;;;;;38.45;23.85;;;;;;;1.84;86.51;101459.43;1690430;82;25814;-77
2020/12/19 11:06:24;;;;;;;33.85;21.80;;;;;;;1.77;86.38;101452.50;1690092;82;25787;-77
2020/12/19 11:08:53;;;;;;;39.53;22.75;;;;;;;1.74;86.45;101446.65;1685350;84;26636;-78
2020/12/19 11:11:20;;;;;;;37.08;22.62;;;;;;;1.72;86.44;101453.66;1690222;82;25516;-77
2020/12/19 11:13:49;;;;;;;35.95;22.05;;;;;;;1.72;86.55;101445.46;1692494;84;25449;-77
2020/12/19 11:16:29;;;;;;;40.50;23.22;;;;;;;1.74;86.51;101449.23;1672893;84;25713;-77
2020/12/19 11:18:57;;;;;;;37.08;23.10;;;;;;;1.72;86.49;101443.34;1693658;82;25569;-77
2020/12/19 11:21:24;;;;;;;42.27;24.07;;;;;;;1.68;86.57;101446.52;1678674;84;25726;-77
2020/12/19 11:23:51;;;;;;;43.38;26.07;;;;;;;1.72;86.75;101445.92;1694256;84;25702;-78